sensor_id;sensor_type;location;lat;lon;timestamp;P1;durP1;ratioP1;P2;durP2;ratioP2
35644;SDS011;21764;52.042;6.830;2023-02-04T02:12:53;62.60;;;7.75;;
35644;SDS011;21764;52.042;6.830;2023-02-04T02:18:58;61.60;;;7.13;;
35644;SDS011;21764;52.042;6.830;2023-02-04T02:42:35;76.93;;;8.23;;
35644;SDS011;21764;52.042;6.830;2023-02-04T03:28:54;72.40;;;8.02;;
35644;SDS011;21764;52.042;6.830;2023-02-04T05:36:22;61.65;;;8.10;;
35644;SDS011;21764;52.042;6.830;2023-02-04T05:48:21;78.93;;;8.15;;
35644;SDS011;21764;52.042;6.830;2023-02-04T06:17:54;62.35;;;7.10;;
35644;SDS011;21764;52.042;6.830;2023-02-04T06:41:40;59.85;;;6.88;;
35644;SDS011;21764;52.042;6.830;2023-02-04T06:59:27;65.93;;;8.20;;
35644;SDS011;21764;52.042;6.830;2023-02-04T07:23:24;65.75;;;10.02;;
35644;SDS011;21764;52.042;6.830;2023-02-04T07:29:22;63.58;;;10.63;;
35644;SDS011;21764;52.042;6.830;2023-02-04T08:04:47;64.43;;;10.50;;
35644;SDS011;21764;52.042;6.830;2023-02-04T08:15:47;73.05;;;9.27;;
35644;SDS011;21764;52.042;6.830;2023-02-04T08:20:51;90.32;;;19.00;;
35644;SDS011;21764;52.042;6.830;2023-02-04T08:38:27;66.68;;;9.55;;
35644;SDS011;21764;52.042;6.830;2023-02-04T08:43:30;66.95;;;9.25;;
35644;SDS011;21764;52.042;6.830;2023-02-04T08:48:35;70.38;;;9.52;;
35644;SDS011;21764;52.042;6.830;2023-02-04T08:53:37;60.58;;;9.07;;
35644;SDS011;21764;52.042;6.830;2023-02-04T08:58:39;76.28;;;10.93;;
35644;SDS011;21764;52.042;6.830;2023-02-04T09:03:40;80.20;;;8.77;;
35644;SDS011;21764;52.042;6.830;2023-02-04T09:08:56;65.28;;;8.07;;
35644;SDS011;21764;52.042;6.830;2023-02-04T09:13:57;62.70;;;7.95;;
35644;SDS011;21764;52.042;6.830;2023-02-04T09:18:58;61.90;;;8.57;;
35644;SDS011;21764;52.042;6.830;2023-02-04T09:23:58;64.90;;;8.55;;
35644;SDS011;21764;52.042;6.830;2023-02-04T09:28:59;71.78;;;10.18;;
35644;SDS011;21764;52.042;6.830;2023-02-04T09:34:00;65.90;;;9.55;;
35644;SDS011;21764;52.042;6.830;2023-02-04T09:39:00;68.82;;;8.48;;
35644;SDS011;21764;52.042;6.830;2023-02-04T09:44:03;66.93;;;8.68;;
35644;SDS011;21764;52.042;6.830;2023-02-04T09:49:07;67.38;;;9.90;;
35644;SDS011;21764;52.042;6.830;2023-02-04T09:54:14;80.03;;;9.55;;
35644;SDS011;21764;52.042;6.830;2023-02-04T09:59:17;72.57;;;10.90;;
35644;SDS011;21764;52.042;6.830;2023-02-04T10:04:19;76.90;;;10.00;;
35644;SDS011;21764;52.042;6.830;2023-02-04T10:09:21;73.25;;;10.38;;
35644;SDS011;21764;52.042;6.830;2023-02-04T10:14:22;64.57;;;12.25;;
35644;SDS011;21764;52.042;6.830;2023-02-04T10:19:23;72.35;;;10.13;;
35644;SDS011;21764;52.042;6.830;2023-02-04T10:24:25;68.07;;;11.25;;
35644;SDS011;21764;52.042;6.830;2023-02-04T10:29:27;82.40;;;11.20;;
35644;SDS011;21764;52.042;6.830;2023-02-04T10:34:32;76.45;;;11.07;;
35644;SDS011;21764;52.042;6.830;2023-02-04T10:39:40;62.72;;;10.77;;
35644;SDS011;21764;52.042;6.830;2023-02-04T10:44:45;69.15;;;10.45;;
35644;SDS011;21764;52.042;6.830;2023-02-04T10:49:54;80.03;;;11.95;;
35644;SDS011;21764;52.042;6.830;2023-02-04T10:54:55;70.05;;;11.65;;
35644;SDS011;21764;52.042;6.830;2023-02-04T10:59:59;68.13;;;10.70;;
35644;SDS011;21764;52.042;6.830;2023-02-04T11:05:02;73.70;;;11.45;;
35644;SDS011;21764;52.042;6.830;2023-02-04T11:10:11;70.60;;;12.20;;
35644;SDS011;21764;52.042;6.830;2023-02-04T11:20:47;59.83;;;10.68;;
35644;SDS011;21764;52.042;6.830;2023-02-04T11:26:00;68.47;;;11.25;;
35644;SDS011;21764;52.042;6.830;2023-02-04T11:31:01;60.35;;;10.40;;
35644;SDS011;21764;52.042;6.830;2023-02-04T11:36:06;76.32;;;10.57;;
35644;SDS011;21764;52.042;6.830;2023-02-04T11:41:23;73.15;;;10.13;;
35644;SDS011;21764;52.042;6.830;2023-02-04T11:46:27;69.65;;;10.38;;
35644;SDS011;21764;52.042;6.830;2023-02-04T11:51:30;73.63;;;11.85;;
35644;SDS011;21764;52.042;6.830;2023-02-04T11:56:32;69.55;;;12.88;;
35644;SDS011;21764;52.042;6.830;2023-02-04T12:01:33;54.58;;;10.60;;
35644;SDS011;21764;52.042;6.830;2023-02-04T12:06:34;65.78;;;12.57;;
35644;SDS011;21764;52.042;6.830;2023-02-04T12:11:36;58.35;;;12.77;;
35644;SDS011;21764;52.042;6.830;2023-02-04T12:16:54;67.15;;;10.57;;
35644;SDS011;21764;52.042;6.830;2023-02-04T12:21:55;55.60;;;9.45;;
35644;SDS011;21764;52.042;6.830;2023-02-04T12:26:56;53.78;;;10.90;;
35644;SDS011;21764;52.042;6.830;2023-02-04T12:31:56;63.95;;;9.80;;
35644;SDS011;21764;52.042;6.830;2023-02-04T12:36:57;62.13;;;8.90;;
35644;SDS011;21764;52.042;6.830;2023-02-04T12:41:57;59.20;;;8.82;;
35644;SDS011;21764;52.042;6.830;2023-02-04T12:47:01;63.20;;;10.63;;
35644;SDS011;21764;52.042;6.830;2023-02-04T12:52:01;59.13;;;8.05;;
35644;SDS011;21764;52.042;6.830;2023-02-04T12:57:02;61.28;;;9.23;;
35644;SDS011;21764;52.042;6.830;2023-02-04T13:02:03;54.33;;;9.93;;
35644;SDS011;21764;52.042;6.830;2023-02-04T13:07:04;63.35;;;9.35;;
35644;SDS011;21764;52.042;6.830;2023-02-04T13:12:06;58.10;;;7.35;;
35644;SDS011;21764;52.042;6.830;2023-02-04T13:17:07;48.72;;;6.57;;
35644;SDS011;21764;52.042;6.830;2023-02-04T13:22:08;50.40;;;7.60;;
35644;SDS011;21764;52.042;6.830;2023-02-04T13:27:09;59.70;;;8.27;;
35644;SDS011;21764;52.042;6.830;2023-02-04T13:32:09;54.13;;;6.78;;
35644;SDS011;21764;52.042;6.830;2023-02-04T13:37:13;57.50;;;10.65;;
35644;SDS011;21764;52.042;6.830;2023-02-04T13:42:14;54.00;;;8.00;;
35644;SDS011;21764;52.042;6.830;2023-02-04T13:47:14;42.63;;;7.50;;
35644;SDS011;21764;52.042;6.830;2023-02-04T13:52:15;41.05;;;6.85;;
35644;SDS011;21764;52.042;6.830;2023-02-04T13:57:17;35.00;;;7.35;;
35644;SDS011;21764;52.042;6.830;2023-02-04T14:02:17;36.40;;;5.32;;
35644;SDS011;21764;52.042;6.830;2023-02-04T14:07:20;43.60;;;6.82;;
35644;SDS011;21764;52.042;6.830;2023-02-04T14:12:20;43.05;;;5.65;;
35644;SDS011;21764;52.042;6.830;2023-02-04T14:17:21;39.10;;;6.15;;
35644;SDS011;21764;52.042;6.830;2023-02-04T14:22:22;51.50;;;14.23;;
35644;SDS011;21764;52.042;6.830;2023-02-04T14:27:22;41.33;;;8.23;;
35644;SDS011;21764;52.042;6.830;2023-02-04T14:32:23;58.90;;;10.50;;
35644;SDS011;21764;52.042;6.830;2023-02-04T14:37:24;48.10;;;10.35;;
35644;SDS011;21764;52.042;6.830;2023-02-04T14:42:27;55.50;;;10.55;;
35644;SDS011;21764;52.042;6.830;2023-02-04T14:47:31;59.57;;;10.63;;
35644;SDS011;21764;52.042;6.830;2023-02-04T14:52:38;44.97;;;8.82;;
35644;SDS011;21764;52.042;6.830;2023-02-04T15:20:02;54.58;;;9.13;;
35644;SDS011;21764;52.042;6.830;2023-02-04T15:25:40;45.25;;;9.20;;
35644;SDS011;21764;52.042;6.830;2023-02-04T15:31:22;46.72;;;7.80;;
35644;SDS011;21764;52.042;6.830;2023-02-04T16:21:05;44.38;;;10.15;;
35644;SDS011;21764;52.042;6.830;2023-02-04T16:26:50;54.72;;;11.93;;
